sensor_id;sensor_type;location;lat;lon;timestamp;P1;durP1;ratioP1;P2;durP2;ratioP2
63286;SDS011;49410;55.708;37.522;2022-07-10T00:00:13;9.43;;;5.68;;
63286;SDS011;49410;55.708;37.522;2022-07-10T00:02:40;11.13;;;6.03;;
63286;SDS011;49410;55.708;37.522;2022-07-10T00:05:07;14.57;;;6.68;;
63286;SDS011;49410;55.708;37.522;2022-07-10T00:07:35;12.63;;;5.97;;
63286;SDS011;49410;55.708;37.522;2022-07-10T00:10:01;15.32;;;6.70;;
63286;SDS011;49410;55.708;37.522;2022-07-10T00:12:26;12.77;;;6.03;;
63286;SDS011;49410;55.708;37.522;2022-07-10T00:14:52;13.95;;;6.05;;
63286;SDS011;49410;55.708;37.522;2022-07-10T00:17:18;13.32;;;6.68;;
63286;SDS011;49410;55.708;37.522;2022-07-10T00:19:43;12.18;;;6.55;;
63286;SDS011;49410;55.708;37.522;2022-07-10T00:22:09;12.57;;;6.65;;
63286;SDS011;49410;55.708;37.522;2022-07-10T00:24:34;14.73;;;7.32;;
63286;SDS011;49410;55.708;37.522;2022-07-10T00:27:00;12.68;;;7.32;;
63286;SDS011;49410;55.708;37.522;2022-07-10T00:29:26;12.73;;;7.03;;
63286;SDS011;49410;55.708;37.522;2022-07-10T00:31:51;11.57;;;7.32;;
63286;SDS011;49410;55.708;37.522;2022-07-10T00:34:17;14.55;;;7.65;;
63286;SDS011;49410;55.708;37.522;2022-07-10T00:36:42;13.48;;;7.50;;
63286;SDS011;49410;55.708;37.522;2022-07-10T00:39:09;14.07;;;7.50;;
63286;SDS011;49410;55.708;37.522;2022-07-10T00:41:35;13.90;;;6.82;;
63286;SDS011;49410;55.708;37.522;2022-07-10T00:44:01;13.27;;;7.03;;
63286;SDS011;49410;55.708;37.522;2022-07-10T00:46:28;10.32;;;5.90;;
63286;SDS011;49410;55.708;37.522;2022-07-10T00:48:54;11.93;;;6.13;;
63286;SDS011;49410;55.708;37.522;2022-07-10T00:51:22;11.13;;;6.00;;
63286;SDS011;49410;55.708;37.522;2022-07-10T00:53:50;9.30;;;5.18;;
63286;SDS011;49410;55.708;37.522;2022-07-10T00:56:16;15.32;;;6.55;;
63286;SDS011;49410;55.708;37.522;2022-07-10T00:58:47;12.10;;;5.95;;
63286;SDS011;49410;55.708;37.522;2022-07-10T01:01:15;12.02;;;6.50;;
63286;SDS011;49410;55.708;37.522;2022-07-10T01:03:42;13.98;;;6.18;;
63286;SDS011;49410;55.708;37.522;2022-07-10T01:06:12;11.82;;;6.57;;
63286;SDS011;49410;55.708;37.522;2022-07-10T01:08:38;10.93;;;5.80;;
63286;SDS011;49410;55.708;37.522;2022-07-10T01:11:04;11.88;;;5.68;;
63286;SDS011;49410;55.708;37.522;2022-07-10T01:13:30;11.63;;;6.30;;
63286;SDS011;49410;55.708;37.522;2022-07-10T01:15:56;10.18;;;5.60;;
63286;SDS011;49410;55.708;37.522;2022-07-10T01:18:23;10.07;;;5.57;;
63286;SDS011;49410;55.708;37.522;2022-07-10T01:20:53;12.98;;;6.38;;
63286;SDS011;49410;55.708;37.522;2022-07-10T01:23:19;10.70;;;5.65;;
63286;SDS011;49410;55.708;37.522;2022-07-10T01:25:45;12.13;;;5.85;;
63286;SDS011;49410;55.708;37.522;2022-07-10T01:28:11;10.85;;;5.80;;
63286;SDS011;49410;55.708;37.522;2022-07-10T01:30:36;11.27;;;5.75;;
63286;SDS011;49410;55.708;37.522;2022-07-10T01:33:02;13.80;;;5.22;;
63286;SDS011;49410;55.708;37.522;2022-07-10T01:35:27;10.52;;;5.10;;
63286;SDS011;49410;55.708;37.522;2022-07-10T01:37:53;8.60;;;4.78;;
63286;SDS011;49410;55.708;37.522;2022-07-10T01:40:19;9.48;;;4.90;;
63286;SDS011;49410;55.708;37.522;2022-07-10T01:42:44;8.52;;;4.93;;
63286;SDS011;49410;55.708;37.522;2022-07-10T01:45:10;8.20;;;5.20;;
63286;SDS011;49410;55.708;37.522;2022-07-10T01:47:36;9.63;;;5.07;;
63286;SDS011;49410;55.708;37.522;2022-07-10T01:50:02;9.38;;;5.18;;
63286;SDS011;49410;55.708;37.522;2022-07-10T01:52:28;9.48;;;5.70;;
63286;SDS011;49410;55.708;37.522;2022-07-10T01:54:54;9.93;;;5.30;;
63286;SDS011;49410;55.708;37.522;2022-07-10T01:57:19;11.38;;;5.57;;
63286;SDS011;49410;55.708;37.522;2022-07-10T01:59:45;9.98;;;5.40;;
63286;SDS011;49410;55.708;37.522;2022-07-10T02:02:11;9.88;;;5.50;;
63286;SDS011;49410;55.708;37.522;2022-07-10T02:04:36;11.27;;;5.45;;
63286;SDS011;49410;55.708;37.522;2022-07-10T02:07:09;10.88;;;5.18;;
63286;SDS011;49410;55.708;37.522;2022-07-10T02:09:36;8.63;;;4.82;;
63286;SDS011;49410;55.708;37.522;2022-07-10T02:12:02;11.52;;;5.15;;
63286;SDS011;49410;55.708;37.522;2022-07-10T02:14:28;11.40;;;5.32;;
63286;SDS011;49410;55.708;37.522;2022-07-10T02:16:54;9.85;;;5.22;;
63286;SDS011;49410;55.708;37.522;2022-07-10T02:19:20;10.95;;;5.20;;
63286;SDS011;49410;55.708;37.522;2022-07-10T02:21:46;8.55;;;4.57;;
63286;SDS011;49410;55.708;37.522;2022-07-10T02:24:11;11.18;;;5.47;;
63286;SDS011;49410;55.708;37.522;2022-07-10T02:26:37;10.48;;;5.07;;
63286;SDS011;49410;55.708;37.522;2022-07-10T02:29:02;10.30;;;5.32;;
63286;SDS011;49410;55.708;37.522;2022-07-10T02:31:28;9.63;;;5.25;;
63286;SDS011;49410;55.708;37.522;2022-07-10T02:33:54;10.88;;;5.05;;
63286;SDS011;49410;55.708;37.522;2022-07-10T02:36:19;10.18;;;5.18;;
63286;SDS011;49410;55.708;37.522;2022-07-10T02:38:45;11.60;;;5.70;;
63286;SDS011;49410;55.708;37.522;2022-07-10T02:41:10;9.00;;;4.43;;
63286;SDS011;49410;55.708;37.522;2022-07-10T02:43:36;16.20;;;5.13;;
63286;SDS011;49410;55.708;37.522;2022-07-10T02:46:01;8.98;;;5.22;;
63286;SDS011;49410;55.708;37.522;2022-07-10T02:48:27;7.78;;;4.30;;
63286;SDS011;49410;55.708;37.522;2022-07-10T02:50:53;10.38;;;5.57;;
63286;SDS011;49410;55.708;37.522;2022-07-10T02:53:18;9.40;;;5.18;;
63286;SDS011;49410;55.708;37.522;2022-07-10T02:55:44;9.25;;;4.78;;
63286;SDS011;49410;55.708;37.522;2022-07-10T02:58:10;9.57;;;5.50;;
63286;SDS011;49410;55.708;37.522;2022-07-10T03:00:36;8.68;;;5.00;;
63286;SDS011;49410;55.708;37.522;2022-07-10T03:03:02;8.68;;;5.00;;
63286;SDS011;49410;55.708;37.522;2022-07-10T03:09:07;9.80;;;4.85;;
63286;SDS011;49410;55.708;37.522;2022-07-10T03:11:33;9.23;;;4.78;;
63286;SDS011;49410;55.708;37.522;2022-07-10T03:13:58;9.90;;;5.03;;
63286;SDS011;49410;55.708;37.522;2022-07-10T03:16:24;9.95;;;4.65;;
63286;SDS011;49410;55.708;37.522;2022-07-10T03:18:49;10.55;;;5.63;;
63286;SDS011;49410;55.708;37.522;2022-07-10T03:21:15;12.02;;;5.80;;
63286;SDS011;49410;55.708;37.522;2022-07-10T03:23:40;11.82;;;5.07;;
63286;SDS011;49410;55.708;37.522;2022-07-10T03:26:06;10.80;;;5.25;;
63286;SDS011;49410;55.708;37.522;2022-07-10T03:28:32;10.38;;;5.57;;
63286;SDS011;49410;55.708;37.522;2022-07-10T03:30:58;12.95;;;5.93;;
63286;SDS011;49410;55.708;37.522;2022-07-10T03:33:24;10.27;;;5.53;;
63286;SDS011;49410;55.708;37.522;2022-07-10T03:35:49;13.60;;;6.18;;
63286;SDS011;49410;55.708;37.522;2022-07-10T03:38:15;11.63;;;6.40;;
63286;SDS011;49410;55.708;37.522;2022-07-10T03:40:40;9.88;;;5.95;;
63286;SDS011;49410;55.708;37.522;2022-07-10T03:43:06;14.70;;;6.20;;
63286;SDS011;49410;55.708;37.522;2022-07-10T03:45:31;12.95;;;6.10;;
63286;SDS011;49410;55.708;37.522;2022-07-10T03:47:57;11.45;;;5.60;;
63286;SDS011;49410;55.708;37.522;2022-07-10T03:50:22;9.88;;;5.80;;
63286;SDS011;49410;55.708;37.522;2022-07-10T03:52:48;13.85;;;6.18;;
63286;SDS011;49410;55.708;37.522;2022-07-10T03:55:13;11.57;;;6.20;;
63286;SDS011;49410;55.708;37.522;2022-07-10T03:57:39;12.95;;;6.00;;
63286;SDS011;49410;55.708;37.522;2022-07-10T04:00:24;9.43;;;5.55;;
63286;SDS011;49410;55.708;37.522;2022-07-10T04:02:57;11.02;;;5.63;;
63286;SDS011;49410;55.708;37.522;2022-07-10T04:05:24;11.65;;;6.03;;
63286;SDS011;49410;55.708;37.522;2022-07-10T04:07:50;10.18;;;6.88;;
63286;SDS011;49410;55.708;37.522;2022-07-10T04:10:16;9.32;;;5.28;;
63286;SDS011;49410;55.708;37.522;2022-07-10T04:12:42;14.05;;;5.97;;
63286;SDS011;49410;55.708;37.522;2022-07-10T04:15:08;10.82;;;5.70;;
63286;SDS011;49410;55.708;37.522;2022-07-10T04:17:33;14.15;;;6.32;;
63286;SDS011;49410;55.708;37.522;2022-07-10T04:19:59;14.15;;;6.13;;
63286;SDS011;49410;55.708;37.522;2022-07-10T04:22:25;11.93;;;7.03;;
63286;SDS011;49410;55.708;37.522;2022-07-10T04:24:52;15.52;;;7.45;;
63286;SDS011;49410;55.708;37.522;2022-07-10T04:27:17;13.90;;;7.22;;
63286;SDS011;49410;55.708;37.522;2022-07-10T04:29:43;12.23;;;6.85;;
63286;SDS011;49410;55.708;37.522;2022-07-10T04:32:09;15.30;;;7.20;;
63286;SDS011;49410;55.708;37.522;2022-07-10T04:34:34;11.35;;;6.55;;
63286;SDS011;49410;55.708;37.522;2022-07-10T04:37:00;13.65;;;7.05;;
63286;SDS011;49410;55.708;37.522;2022-07-10T04:39:25;12.93;;;6.43;;
63286;SDS011;49410;55.708;37.522;2022-07-10T04:41:51;13.13;;;6.90;;
63286;SDS011;49410;55.708;37.522;2022-07-10T04:44:18;11.35;;;7.25;;
63286;SDS011;49410;55.708;37.522;2022-07-10T04:46:44;13.10;;;6.25;;
63286;SDS011;49410;55.708;37.522;2022-07-10T04:49:09;12.25;;;6.63;;
63286;SDS011;49410;55.708;37.522;2022-07-10T04:51:35;11.65;;;5.88;;
63286;SDS011;49410;55.708;37.522;2022-07-10T04:54:00;15.68;;;6.38;;
63286;SDS011;49410;55.708;37.522;2022-07-10T04:56:26;10.65;;;5.60;;
63286;SDS011;49410;55.708;37.522;2022-07-10T04:58:51;11.77;;;5.95;;
63286;SDS011;49410;55.708;37.522;2022-07-10T05:01:17;10.82;;;5.93;;
63286;SDS011;49410;55.708;37.522;2022-07-10T05:03:43;10.82;;;7.00;;
63286;SDS011;49410;55.708;37.522;2022-07-10T05:06:08;12.02;;;6.45;;
63286;SDS011;49410;55.708;37.522;2022-07-10T05:08:34;11.25;;;6.30;;
63286;SDS011;49410;55.708;37.522;2022-07-10T05:10:59;10.05;;;5.93;;
63286;SDS011;49410;55.708;37.522;2022-07-10T05:13:25;11.77;;;6.55;;
63286;SDS011;49410;55.708;37.522;2022-07-10T05:15:50;12.63;;;6.50;;
63286;SDS011;49410;55.708;37.522;2022-07-10T05:18:16;11.18;;;6.45;;
63286;SDS011;49410;55.708;37.522;2022-07-10T05:20:41;11.55;;;6.50;;
63286;SDS011;49410;55.708;37.522;2022-07-10T05:23:08;13.23;;;7.32;;
63286;SDS011;49410;55.708;37.522;2022-07-10T05:25:34;14.65;;;7.95;;
63286;SDS011;49410;55.708;37.522;2022-07-10T05:27:59;12.30;;;7.00;;
63286;SDS011;49410;55.708;37.522;2022-07-10T05:30:24;11.88;;;7.15;;
63286;SDS011;49410;55.708;37.522;2022-07-10T05:32:50;15.30;;;7.20;;
63286;SDS011;49410;55.708;37.522;2022-07-10T05:35:15;13.18;;;7.30;;
63286;SDS011;49410;55.708;37.522;2022-07-10T05:37:41;17.23;;;7.53;;
63286;SDS011;49410;55.708;37.522;2022-07-10T05:40:07;12.27;;;6.65;;
63286;SDS011;49410;55.708;37.522;2022-07-10T05:42:33;13.85;;;7.97;;
63286;SDS011;49410;55.708;37.522;2022-07-10T05:44:59;12.68;;;7.35;;
63286;SDS011;49410;55.708;37.522;2022-07-10T05:47:25;13.10;;;7.57;;
63286;SDS011;49410;55.708;37.522;2022-07-10T05:49:50;13.18;;;7.45;;
63286;SDS011;49410;55.708;37.522;2022-07-10T05:52:16;14.07;;;7.72;;
63286;SDS011;49410;55.708;37.522;2022-07-10T05:54:41;16.25;;;8.27;;
63286;SDS011;49410;55.708;37.522;2022-07-10T05:57:07;15.00;;;8.00;;
63286;SDS011;49410;55.708;37.522;2022-07-10T05:59:33;16.63;;;7.45;;
63286;SDS011;49410;55.708;37.522;2022-07-10T06:01:59;14.45;;;6.78;;
63286;SDS011;49410;55.708;37.522;2022-07-10T06:04:25;15.20;;;8.27;;
63286;SDS011;49410;55.708;37.522;2022-07-10T06:06:51;18.65;;;8.35;;
63286;SDS011;49410;55.708;37.522;2022-07-10T06:09:16;15.27;;;8.10;;
63286;SDS011;49410;55.708;37.522;2022-07-10T06:11:41;14.70;;;8.05;;
63286;SDS011;49410;55.708;37.522;2022-07-10T06:14:09;13.43;;;8.65;;
63286;SDS011;49410;55.708;37.522;2022-07-10T06:16:34;17.92;;;8.07;;
63286;SDS011;49410;55.708;37.522;2022-07-10T06:19:00;15.60;;;8.30;;
63286;SDS011;49410;55.708;37.522;2022-07-10T06:21:25;15.25;;;9.55;;
63286;SDS011;49410;55.708;37.522;2022-07-10T06:23:51;16.30;;;9.85;;
63286;SDS011;49410;55.708;37.522;2022-07-10T06:26:16;14.10;;;9.25;;
63286;SDS011;49410;55.708;37.522;2022-07-10T06:28:42;17.65;;;9.85;;
63286;SDS011;49410;55.708;37.522;2022-07-10T06:31:07;17.80;;;10.43;;
63286;SDS011;49410;55.708;37.522;2022-07-10T06:33:33;16.45;;;9.02;;
63286;SDS011;49410;55.708;37.522;2022-07-10T06:36:00;19.85;;;10.23;;
63286;SDS011;49410;55.708;37.522;2022-07-10T06:38:26;20.05;;;10.40;;
63286;SDS011;49410;55.708;37.522;2022-07-10T06:40:52;15.63;;;9.80;;
63286;SDS011;49410;55.708;37.522;2022-07-10T06:43:17;18.63;;;10.05;;
63286;SDS011;49410;55.708;37.522;2022-07-10T06:45:43;17.27;;;9.73;;
63286;SDS011;49410;55.708;37.522;2022-07-10T06:48:10;17.15;;;9.95;;
63286;SDS011;49410;55.708;37.522;2022-07-10T06:50:36;16.38;;;10.50;;
63286;SDS011;49410;55.708;37.522;2022-07-10T06:53:02;18.23;;;9.98;;
63286;SDS011;49410;55.708;37.522;2022-07-10T06:55:28;17.83;;;9.80;;
63286;SDS011;49410;55.708;37.522;2022-07-10T06:57:55;18.45;;;10.18;;
63286;SDS011;49410;55.708;37.522;2022-07-10T07:00:21;15.50;;;10.27;;
63286;SDS011;49410;55.708;37.522;2022-07-10T07:02:47;17.42;;;10.13;;
63286;SDS011;49410;55.708;37.522;2022-07-10T07:05:12;18.23;;;8.70;;
63286;SDS011;49410;55.708;37.522;2022-07-10T07:07:38;14.82;;;8.98;;
63286;SDS011;49410;55.708;37.522;2022-07-10T07:10:04;15.57;;;9.60;;
63286;SDS011;49410;55.708;37.522;2022-07-10T07:12:31;14.10;;;9.35;;
63286;SDS011;49410;55.708;37.522;2022-07-10T07:14:56;16.73;;;8.68;;
63286;SDS011;49410;55.708;37.522;2022-07-10T07:17:22;15.00;;;8.57;;
63286;SDS011;49410;55.708;37.522;2022-07-10T07:19:50;13.68;;;8.68;;
63286;SDS011;49410;55.708;37.522;2022-07-10T07:22:35;16.27;;;9.30;;
63286;SDS011;49410;55.708;37.522;2022-07-10T07:25:18;13.10;;;8.80;;
63286;SDS011;49410;55.708;37.522;2022-07-10T07:27:44;15.30;;;8.23;;
63286;SDS011;49410;55.708;37.522;2022-07-10T07:30:11;13.82;;;8.20;;
63286;SDS011;49410;55.708;37.522;2022-07-10T07:32:40;12.20;;;8.07;;
63286;SDS011;49410;55.708;37.522;2022-07-10T07:35:06;16.42;;;8.77;;
63286;SDS011;49410;55.708;37.522;2022-07-10T07:37:36;13.82;;;8.52;;
63286;SDS011;49410;55.708;37.522;2022-07-10T07:40:03;12.02;;;8.00;;
63286;SDS011;49410;55.708;37.522;2022-07-10T07:42:29;14.85;;;7.47;;
63286;SDS011;49410;55.708;37.522;2022-07-10T07:44:54;10.95;;;7.35;;
63286;SDS011;49410;55.708;37.522;2022-07-10T07:47:20;12.40;;;7.78;;
63286;SDS011;49410;55.708;37.522;2022-07-10T07:49:45;14.30;;;8.43;;
63286;SDS011;49410;55.708;37.522;2022-07-10T07:52:11;14.57;;;8.00;;
63286;SDS011;49410;55.708;37.522;2022-07-10T07:54:36;14.00;;;8.52;;
63286;SDS011;49410;55.708;37.522;2022-07-10T07:57:01;16.30;;;7.65;;
63286;SDS011;49410;55.708;37.522;2022-07-10T07:59:27;11.52;;;7.80;;
63286;SDS011;49410;55.708;37.522;2022-07-10T08:01:53;11.52;;;7.55;;
63286;SDS011;49410;55.708;37.522;2022-07-10T08:04:18;11.82;;;7.55;;
63286;SDS011;49410;55.708;37.522;2022-07-10T08:06:43;14.35;;;7.90;;
63286;SDS011;49410;55.708;37.522;2022-07-10T08:09:09;15.25;;;8.50;;
63286;SDS011;49410;55.708;37.522;2022-07-10T08:11:34;12.45;;;8.02;;
63286;SDS011;49410;55.708;37.522;2022-07-10T08:14:00;10.75;;;7.47;;
63286;SDS011;49410;55.708;37.522;2022-07-10T08:16:25;11.70;;;7.78;;
63286;SDS011;49410;55.708;37.522;2022-07-10T08:18:51;11.48;;;7.20;;
63286;SDS011;49410;55.708;37.522;2022-07-10T08:21:17;11.95;;;6.72;;
63286;SDS011;49410;55.708;37.522;2022-07-10T08:23:42;12.75;;;7.35;;
63286;SDS011;49410;55.708;37.522;2022-07-10T08:26:08;11.45;;;6.93;;
63286;SDS011;49410;55.708;37.522;2022-07-10T08:28:33;12.35;;;6.82;;
63286;SDS011;49410;55.708;37.522;2022-07-10T08:30:59;12.20;;;7.43;;
63286;SDS011;49410;55.708;37.522;2022-07-10T08:33:24;10.75;;;7.25;;
63286;SDS011;49410;55.708;37.522;2022-07-10T08:35:50;10.95;;;6.97;;
63286;SDS011;49410;55.708;37.522;2022-07-10T08:38:15;8.93;;;6.43;;
63286;SDS011;49410;55.708;37.522;2022-07-10T08:40:40;10.00;;;6.95;;
63286;SDS011;49410;55.708;37.522;2022-07-10T08:43:07;9.55;;;6.97;;
63286;SDS011;49410;55.708;37.522;2022-07-10T08:45:33;12.43;;;7.50;;
63286;SDS011;49410;55.708;37.522;2022-07-10T08:48:01;10.30;;;6.93;;
63286;SDS011;49410;55.708;37.522;2022-07-10T08:50:28;10.70;;;6.88;;
63286;SDS011;49410;55.708;37.522;2022-07-10T08:52:59;11.73;;;6.68;;
63286;SDS011;49410;55.708;37.522;2022-07-10T08:55:35;12.25;;;7.38;;
63286;SDS011;49410;55.708;37.522;2022-07-10T08:58:00;9.93;;;6.68;;
63286;SDS011;49410;55.708;37.522;2022-07-10T09:00:26;9.25;;;6.35;;
63286;SDS011;49410;55.708;37.522;2022-07-10T09:02:54;8.48;;;5.78;;
63286;SDS011;49410;55.708;37.522;2022-07-10T09:05:20;8.68;;;5.25;;
63286;SDS011;49410;55.708;37.522;2022-07-10T09:07:45;9.45;;;5.40;;
63286;SDS011;49410;55.708;37.522;2022-07-10T09:10:11;8.50;;;5.40;;
63286;SDS011;49410;55.708;37.522;2022-07-10T09:15:16;12.43;;;5.43;;
63286;SDS011;49410;55.708;37.522;2022-07-10T09:17:53;8.65;;;5.70;;
63286;SDS011;49410;55.708;37.522;2022-07-10T09:22:58;11.00;;;5.82;;
63286;SDS011;49410;55.708;37.522;2022-07-10T09:25:31;13.57;;;5.72;;
63286;SDS011;49410;55.708;37.522;2022-07-10T09:27:58;8.63;;;5.47;;
63286;SDS011;49410;55.708;37.522;2022-07-10T09:30:38;8.95;;;5.60;;
63286;SDS011;49410;55.708;37.522;2022-07-10T09:33:18;11.73;;;5.18;;
63286;SDS011;49410;55.708;37.522;2022-07-10T09:36:00;10.73;;;5.57;;
63286;SDS011;49410;55.708;37.522;2022-07-10T09:38:52;9.77;;;5.53;;
63286;SDS011;49410;55.708;37.522;2022-07-10T09:46:28;8.75;;;5.90;;
63286;SDS011;49410;55.708;37.522;2022-07-10T09:49:00;8.48;;;4.90;;
63286;SDS011;49410;55.708;37.522;2022-07-10T09:51:29;9.77;;;5.13;;
63286;SDS011;49410;55.708;37.522;2022-07-10T09:53:57;7.70;;;5.20;;
63286;SDS011;49410;55.708;37.522;2022-07-10T09:56:26;8.38;;;4.82;;
63286;SDS011;49410;55.708;37.522;2022-07-10T09:58:52;9.23;;;5.03;;
63286;SDS011;49410;55.708;37.522;2022-07-10T10:01:19;9.98;;;4.90;;
63286;SDS011;49410;55.708;37.522;2022-07-10T10:03:48;9.05;;;4.70;;
63286;SDS011;49410;55.708;37.522;2022-07-10T10:06:14;9.20;;;5.20;;
63286;SDS011;49410;55.708;37.522;2022-07-10T10:11:16;8.15;;;4.57;;
63286;SDS011;49410;55.708;37.522;2022-07-10T10:13:44;7.80;;;4.13;;
63286;SDS011;49410;55.708;37.522;2022-07-10T10:16:11;7.75;;;4.20;;
63286;SDS011;49410;55.708;37.522;2022-07-10T10:18:38;9.43;;;4.40;;
63286;SDS011;49410;55.708;37.522;2022-07-10T10:21:25;9.57;;;4.68;;
63286;SDS011;49410;55.708;37.522;2022-07-10T10:23:52;9.23;;;4.88;;
63286;SDS011;49410;55.708;37.522;2022-07-10T10:26:20;12.10;;;5.18;;
63286;SDS011;49410;55.708;37.522;2022-07-10T10:28:46;8.45;;;4.82;;
63286;SDS011;49410;55.708;37.522;2022-07-10T10:31:12;7.72;;;4.60;;
63286;SDS011;49410;55.708;37.522;2022-07-10T10:33:41;7.50;;;5.25;;
63286;SDS011;49410;55.708;37.522;2022-07-10T10:36:08;7.50;;;4.15;;
63286;SDS011;49410;55.708;37.522;2022-07-10T10:41:27;6.95;;;3.58;;
63286;SDS011;49410;55.708;37.522;2022-07-10T10:46:35;9.63;;;3.45;;
63286;SDS011;49410;55.708;37.522;2022-07-10T10:49:08;6.20;;;3.50;;
63286;SDS011;49410;55.708;37.522;2022-07-10T10:57:22;8.60;;;4.07;;
63286;SDS011;49410;55.708;37.522;2022-07-10T11:00:13;7.80;;;3.88;;
63286;SDS011;49410;55.708;37.522;2022-07-10T11:02:40;8.00;;;4.15;;
63286;SDS011;49410;55.708;37.522;2022-07-10T11:13:16;6.72;;;3.42;;
63286;SDS011;49410;55.708;37.522;2022-07-10T11:15:47;6.35;;;3.80;;
63286;SDS011;49410;55.708;37.522;2022-07-10T11:20:48;9.20;;;4.22;;
63286;SDS011;49410;55.708;37.522;2022-07-10T11:26:05;7.10;;;3.67;;
63286;SDS011;49410;55.708;37.522;2022-07-10T11:28:55;7.85;;;3.85;;
63286;SDS011;49410;55.708;37.522;2022-07-10T11:31:22;6.38;;;3.80;;
63286;SDS011;49410;55.708;37.522;2022-07-10T11:33:51;7.07;;;3.50;;
63286;SDS011;49410;55.708;37.522;2022-07-10T11:36:21;7.32;;;3.20;;
63286;SDS011;49410;55.708;37.522;2022-07-10T11:39:02;8.45;;;4.30;;
63286;SDS011;49410;55.708;37.522;2022-07-10T11:41:30;6.57;;;3.67;;
63286;SDS011;49410;55.708;37.522;2022-07-10T11:43:57;9.15;;;5.13;;
63286;SDS011;49410;55.708;37.522;2022-07-10T11:46:23;7.45;;;4.10;;
63286;SDS011;49410;55.708;37.522;2022-07-10T11:48:49;8.85;;;4.15;;
63286;SDS011;49410;55.708;37.522;2022-07-10T11:51:21;7.65;;;4.07;;
63286;SDS011;49410;55.708;37.522;2022-07-10T11:53:58;11.52;;;4.20;;
63286;SDS011;49410;55.708;37.522;2022-07-10T11:56:27;6.88;;;3.75;;
63286;SDS011;49410;55.708;37.522;2022-07-10T11:58:55;12.27;;;3.80;;
63286;SDS011;49410;55.708;37.522;2022-07-10T12:01:22;8.48;;;4.07;;
63286;SDS011;49410;55.708;37.522;2022-07-10T12:04:00;10.80;;;4.00;;
63286;SDS011;49410;55.708;37.522;2022-07-10T12:06:28;8.27;;;3.75;;
63286;SDS011;49410;55.708;37.522;2022-07-10T12:08:55;14.82;;;3.88;;
63286;SDS011;49410;55.708;37.522;2022-07-10T12:11:22;9.10;;;3.75;;
63286;SDS011;49410;55.708;37.522;2022-07-10T12:13:48;8.52;;;4.10;;
63286;SDS011;49410;55.708;37.522;2022-07-10T12:16:16;7.38;;;3.85;;
63286;SDS011;49410;55.708;37.522;2022-07-10T12:18:42;6.47;;;3.72;;
63286;SDS011;49410;55.708;37.522;2022-07-10T12:21:09;8.38;;;3.90;;
63286;SDS011;49410;55.708;37.522;2022-07-10T12:23:35;7.50;;;3.75;;
63286;SDS011;49410;55.708;37.522;2022-07-10T12:26:04;11.48;;;4.28;;
63286;SDS011;49410;55.708;37.522;2022-07-10T12:28:29;6.25;;;3.90;;
63286;SDS011;49410;55.708;37.522;2022-07-10T12:30:55;6.95;;;3.78;;
63286;SDS011;49410;55.708;37.522;2022-07-10T12:33:22;6.63;;;3.80;;
63286;SDS011;49410;55.708;37.522;2022-07-10T12:35:55;6.18;;;3.78;;
63286;SDS011;49410;55.708;37.522;2022-07-10T12:38:22;6.72;;;4.05;;
63286;SDS011;49410;55.708;37.522;2022-07-10T12:40:50;8.57;;;4.00;;
63286;SDS011;49410;55.708;37.522;2022-07-10T12:43:26;8.63;;;4.05;;
63286;SDS011;49410;55.708;37.522;2022-07-10T12:46:09;8.15;;;4.10;;
63286;SDS011;49410;55.708;37.522;2022-07-10T12:49:00;6.47;;;3.60;;
63286;SDS011;49410;55.708;37.522;2022-07-10T12:51:30;12.68;;;4.30;;
63286;SDS011;49410;55.708;37.522;2022-07-10T12:53:57;6.35;;;4.03;;
63286;SDS011;49410;55.708;37.522;2022-07-10T12:58:59;11.55;;;3.67;;
63286;SDS011;49410;55.708;37.522;2022-07-10T13:01:27;8.68;;;4.30;;
63286;SDS011;49410;55.708;37.522;2022-07-10T13:04:00;7.75;;;3.50;;
63286;SDS011;49410;55.708;37.522;2022-07-10T13:08:56;9.02;;;4.10;;
63286;SDS011;49410;55.708;37.522;2022-07-10T13:11:21;8.05;;;3.92;;
63286;SDS011;49410;55.708;37.522;2022-07-10T13:13:47;9.52;;;3.88;;
63286;SDS011;49410;55.708;37.522;2022-07-10T13:16:13;7.57;;;3.70;;
63286;SDS011;49410;55.708;37.522;2022-07-10T13:18:38;8.60;;;3.60;;
63286;SDS011;49410;55.708;37.522;2022-07-10T13:21:07;9.95;;;3.85;;
63286;SDS011;49410;55.708;37.522;2022-07-10T13:23:33;8.50;;;3.97;;
63286;SDS011;49410;55.708;37.522;2022-07-10T13:25:58;7.07;;;3.60;;
63286;SDS011;49410;55.708;37.522;2022-07-10T13:28:26;10.07;;;3.88;;
63286;SDS011;49410;55.708;37.522;2022-07-10T13:30:52;7.88;;;3.90;;
63286;SDS011;49410;55.708;37.522;2022-07-10T13:33:18;9.45;;;3.63;;
63286;SDS011;49410;55.708;37.522;2022-07-10T13:35:43;6.85;;;3.55;;
63286;SDS011;49410;55.708;37.522;2022-07-10T13:38:09;8.85;;;3.83;;
63286;SDS011;49410;55.708;37.522;2022-07-10T13:44:15;6.60;;;3.67;;
63286;SDS011;49410;55.708;37.522;2022-07-10T13:46:41;9.35;;;3.65;;
63286;SDS011;49410;55.708;37.522;2022-07-10T13:49:06;8.85;;;3.90;;
63286;SDS011;49410;55.708;37.522;2022-07-10T13:51:32;6.53;;;3.50;;
63286;SDS011;49410;55.708;37.522;2022-07-10T13:53:57;6.20;;;3.65;;
63286;SDS011;49410;55.708;37.522;2022-07-10T13:56:23;10.48;;;3.63;;
63286;SDS011;49410;55.708;37.522;2022-07-10T13:58:50;9.55;;;3.90;;
63286;SDS011;49410;55.708;37.522;2022-07-10T14:01:16;6.65;;;3.80;;
63286;SDS011;49410;55.708;37.522;2022-07-10T14:03:42;9.45;;;4.18;;
63286;SDS011;49410;55.708;37.522;2022-07-10T14:06:07;7.57;;;4.30;;
63286;SDS011;49410;55.708;37.522;2022-07-10T14:08:33;7.85;;;4.57;;
63286;SDS011;49410;55.708;37.522;2022-07-10T14:10:58;10.15;;;4.10;;
63286;SDS011;49410;55.708;37.522;2022-07-10T14:13:23;7.13;;;4.10;;
63286;SDS011;49410;55.708;37.522;2022-07-10T14:15:49;7.70;;;4.00;;
63286;SDS011;49410;55.708;37.522;2022-07-10T14:18:14;9.32;;;3.88;;
63286;SDS011;49410;55.708;37.522;2022-07-10T14:21:00;10.68;;;4.15;;
63286;SDS011;49410;55.708;37.522;2022-07-10T14:23:29;10.02;;;3.70;;
63286;SDS011;49410;55.708;37.522;2022-07-10T14:25:56;9.98;;;4.53;;
63286;SDS011;49410;55.708;37.522;2022-07-10T14:28:22;11.18;;;3.90;;
63286;SDS011;49410;55.708;37.522;2022-07-10T14:30:48;9.18;;;4.10;;
63286;SDS011;49410;55.708;37.522;2022-07-10T14:33:14;8.25;;;4.22;;
63286;SDS011;49410;55.708;37.522;2022-07-10T14:35:40;16.45;;;4.20;;
63286;SDS011;49410;55.708;37.522;2022-07-10T14:38:05;13.35;;;3.20;;
63286;SDS011;49410;55.708;37.522;2022-07-10T14:40:31;16.30;;;3.47;;
63286;SDS011;49410;55.708;37.522;2022-07-10T14:42:56;20.00;;;3.92;;
63286;SDS011;49410;55.708;37.522;2022-07-10T14:45:23;12.38;;;3.42;;
63286;SDS011;49410;55.708;37.522;2022-07-10T14:47:49;13.30;;;3.72;;
63286;SDS011;49410;55.708;37.522;2022-07-10T14:50:14;13.25;;;4.15;;
63286;SDS011;49410;55.708;37.522;2022-07-10T14:52:42;10.55;;;4.35;;
63286;SDS011;49410;55.708;37.522;2022-07-10T14:55:08;14.50;;;3.90;;
63286;SDS011;49410;55.708;37.522;2022-07-10T14:57:33;10.25;;;3.15;;
63286;SDS011;49410;55.708;37.522;2022-07-10T14:59:59;11.65;;;3.60;;
63286;SDS011;49410;55.708;37.522;2022-07-10T15:02:24;13.50;;;3.60;;
63286;SDS011;49410;55.708;37.522;2022-07-10T15:04:50;7.20;;;2.90;;
63286;SDS011;49410;55.708;37.522;2022-07-10T15:07:15;8.57;;;2.47;;
63286;SDS011;49410;55.708;37.522;2022-07-10T15:09:43;8.50;;;2.78;;
63286;SDS011;49410;55.708;37.522;2022-07-10T15:12:09;5.90;;;2.30;;
63286;SDS011;49410;55.708;37.522;2022-07-10T15:14:35;10.27;;;2.90;;